Time;durP1;ratioP1;P1;durP2;ratioP2;P2;SDS_P1;SDS_P2;PMS_P1;PMS_P2;Temp;Humidity;BMP_temperature;BMP_pressure;BME280_temperature;BME280_humidity;BME280_pressure;Samples;Min_cycle;Max_cycle;Signal;HPM_P1;HPM_P2
2022/12/09 00:00:46;;;;;;;14.55;5.07;;;;;;;-2.36;75.13;99496.78;4995517;28;20135;-52
2022/12/09 00:03:13;;;;;;;10.18;4.18;;;;;;;-2.32;74.65;99488.50;4998422;28;20104;-53
2022/12/09 00:05:44;;;;;;;11.35;4.38;;;;;;;-2.30;75.22;99485.19;5000423;28;20050;-52
2022/12/09 00:08:10;;;;;;;8.32;3.20;;;;;;;-2.26;75.24;99492.09;4999292;28;20085;-51
2022/12/09 00:10:37;;;;;;;10.60;4.20;;;;;;;-2.25;75.52;99492.16;4999603;28;20045;-50
2022/12/09 00:13:04;;;;;;;10.05;4.55;;;;;;;-2.22;75.43;99488.88;5000206;28;20137;-50
2022/12/09 00:15:30;;;;;;;4.72;3.30;;;;;;;-2.17;75.84;99492.47;4999263;28;20042;-50
2022/12/09 00:17:57;;;;;;;6.65;3.92;;;;;;;-2.09;75.61;99490.25;4999893;28;21112;-51
2022/12/09 00:20:24;;;;;;;11.52;4.32;;;;;;;-2.03;75.25;99487.09;4998792;28;20125;-51
2022/12/09 00:22:50;;;;;;;13.82;5.32;;;;;;;-1.96;75.91;99483.97;5002086;28;20052;-52
2022/12/09 00:25:17;;;;;;;9.05;3.78;;;;;;;-1.89;75.03;99488.47;4999423;28;20132;-51
2022/12/09 00:27:43;;;;;;;12.95;4.95;;;;;;;-1.84;76.10;99481.91;5004530;28;20064;-51
2022/12/09 00:30:10;;;;;;;13.85;3.95;;;;;;;-1.76;75.45;99488.94;5001950;28;20173;-50
2022/12/09 00:32:37;;;;;;;9.63;4.00;;;;;;;-1.71;75.54;99492.53;5003572;28;20493;-48
2022/12/09 00:35:04;;;;;;;10.95;5.53;;;;;;;-1.67;75.64;99486.75;5004260;28;20042;-51
2022/12/09 00:37:33;;;;;;;14.50;4.95;;;;;;;-1.62;75.27;99487.78;5005035;28;20041;-51
2022/12/09 00:39:59;;;;;;;10.52;3.88;;;;;;;-1.57;75.77;99495.59;5005670;28;20050;-50
2022/12/09 00:42:27;;;;;;;12.43;4.28;;;;;;;-1.52;75.81;99494.06;5001970;28;20050;-53
2022/12/09 00:44:53;;;;;;;14.73;4.80;;;;;;;-1.47;75.72;99484.97;5002408;28;20124;-51
2022/12/09 00:47:20;;;;;;;11.02;4.35;;;;;;;-1.41;76.34;99486.88;5001581;28;20079;-55
2022/12/09 00:49:47;;;;;;;10.40;4.20;;;;;;;-1.36;75.90;99485.34;5002367;28;20060;-50
2022/12/09 00:52:13;;;;;;;7.38;2.58;;;;;;;-1.30;76.09;99475.41;5002292;28;20065;-51
2022/12/09 00:54:40;;;;;;;9.75;3.75;;;;;;;-1.24;76.17;99471.34;4999516;28;20061;-52
2022/12/09 00:57:07;;;;;;;6.05;2.88;;;;;;;-1.20;76.28;99465.56;4999661;28;20072;-51
2022/12/09 00:59:33;;;;;;;10.85;4.15;;;;;;;-1.17;76.56;99466.56;4999885;28;20081;-49
2022/12/09 01:02:00;;;;;;;8.70;3.97;;;;;;;-1.15;76.03;99464.03;4998646;28;20049;-52
2022/12/09 01:04:27;;;;;;;6.95;3.75;;;;;;;-1.12;75.62;99469.25;5001060;28;20067;-50
2022/12/09 01:06:53;;;;;;;13.25;5.32;;;;;;;-1.09;75.81;99474.44;5003321;28;20053;-51
2022/12/09 01:09:20;;;;;;;13.35;5.78;;;;;;;-1.05;75.85;99473.72;4995919;28;20449;-52
2022/12/09 01:11:47;;;;;;;17.38;6.00;;;;;;;-1.01;75.43;99466.22;5003605;28;20060;-51
2022/12/09 01:14:13;;;;;;;11.35;5.43;;;;;;;-0.98;75.48;99468.88;5006042;28;20084;-51
2022/12/09 01:16:40;;;;;;;12.75;5.45;;;;;;;-0.95;75.78;99474.06;5007019;28;20136;-51
2022/12/09 01:19:10;;;;;;;7.70;4.38;;;;;;;-0.93;75.42;99468.22;5006138;28;20681;-52
2022/12/09 01:21:38;;;;;;;9.52;4.32;;;;;;;-0.89;75.57;99469.19;5005918;28;20041;-53
2022/12/09 01:24:09;;;;;;;17.33;4.97;;;;;;;-0.86;75.59;99471.84;5005965;28;20054;-50
2022/12/09 01:26:38;;;;;;;11.57;5.65;;;;;;;-0.83;75.56;99465.97;5005521;28;20046;-53
2022/12/09 01:29:06;;;;;;;15.38;5.70;;;;;;;-0.81;75.53;99475.38;5007791;28;20042;-48
2022/12/09 01:31:36;;;;;;;12.18;5.03;;;;;;;-0.76;75.62;99473.00;5007319;28;20060;-53
2022/12/09 01:34:05;;;;;;;14.38;6.07;;;;;;;-0.72;75.67;99466.34;5004388;28;20042;-48
2022/12/09 01:36:33;;;;;;;11.43;6.15;;;;;;;-0.71;75.58;99468.94;5004408;28;20069;-51
2022/12/09 01:39:02;;;;;;;16.88;5.95;;;;;;;-0.67;75.49;99462.28;5004133;28;20038;-50
2022/12/09 01:41:30;;;;;;;12.75;5.45;;;;;;;-0.63;75.71;99469.22;4999811;28;20050;-53
2022/12/09 01:44:19;;;;;;;14.73;6.07;;;;;;;-0.59;75.41;99475.25;5005318;28;20553;-52
2022/12/09 01:46:52;;;;;;;14.68;6.32;;;;;;;-0.55;75.58;99477.06;5005305;28;20108;-51
2022/12/09 01:49:27;;;;;;;14.90;5.28;;;;;;;-0.50;75.46;99474.69;5003866;28;20052;-51
2022/12/09 01:52:02;;;;;;;12.32;5.70;;;;;;;-0.48;75.43;99476.47;5004645;28;20049;-48
2022/12/09 01:54:30;;;;;;;15.57;5.43;;;;;;;-0.44;75.37;99480.84;5002782;28;20505;-51
2022/12/09 01:56:57;;;;;;;12.73;6.13;;;;;;;-0.41;75.42;99480.06;5005170;28;20142;-52
2022/12/09 01:59:25;;;;;;;15.88;5.55;;;;;;;-0.38;75.64;99484.41;4999853;28;20132;-49
2022/12/09 02:01:59;;;;;;;7.05;2.80;;;;;;;-0.37;75.83;99476.84;5007224;28;20046;-54
2022/12/09 02:04:28;;;;;;;15.95;6.85;;;;;;;-0.36;75.75;99478.56;5004607;28;20057;-48
2022/12/09 02:06:58;;;;;;;17.50;6.30;;;;;;;-0.34;75.64;99469.28;5004467;28;20084;-51
2022/12/09 02:09:25;;;;;;;9.23;4.85;;;;;;;-0.32;75.88;99472.75;5002514;28;20046;-52
2022/12/09 02:25:28;;;;;;;18.10;8.02;;;;;;;-0.27;75.50;99463.56;5040327;27;21093;-50
2022/12/09 02:28:26;;;;;;;18.10;6.78;;;;;;;-0.31;75.58;99456.66;5016985;28;20405;-51
2022/12/09 02:31:12;;;;;;;;;;;;;;;-0.36;75.69;99457.31;5015299;28;20141;-49
2022/12/09 02:36:19;;;;;;;15.82;6.70;;;;;;;-0.48;75.80;99462.91;5023128;28;20755;-50
2022/12/09 02:38:48;;;;;;;16.10;6.60;;;;;;;-0.53;75.17;99458.50;4999192;28;20157;-51
2022/12/09 02:41:19;;;;;;;20.55;8.80;;;;;;;-0.55;75.47;99457.59;4999669;28;20141;-48
2022/12/09 02:43:50;;;;;;;15.85;7.93;;;;;;;-0.55;75.58;99467.78;5001585;28;20049;-51
2022/12/09 02:46:19;;;;;;;20.10;8.82;;;;;;;-0.55;75.73;99466.91;4999705;28;20054;-50
2022/12/09 02:48:52;;;;;;;24.85;9.00;;;;;;;-0.54;75.38;99466.94;5001142;28;20054;-50
2022/12/09 02:51:21;;;;;;;19.55;7.13;;;;;;;-0.52;75.38;99467.88;4998285;28;20137;-52
2022/12/09 02:53:52;;;;;;;18.98;8.95;;;;;;;-0.48;75.72;99473.06;5016575;28;20082;-50
2022/12/09 02:56:20;;;;;;;14.95;6.35;;;;;;;-0.46;75.72;99469.75;4999830;28;20133;-53
2022/12/09 02:58:48;;;;;;;15.57;7.20;;;;;;;-0.44;75.65;99465.56;5000355;28;20078;-51
2022/12/09 03:03:57;;;;;;;18.50;5.75;;;;;;;-0.37;75.63;99455.59;5009516;28;20410;-51
2022/12/09 03:06:30;;;;;;;14.82;7.18;;;;;;;-0.35;75.83;99453.97;4999359;28;20639;-52
2022/12/09 03:09:06;;;;;;;17.05;7.45;;;;;;;-0.33;76.00;99453.22;4993539;28;20157;-51
2022/12/09 03:11:34;;;;;;;15.20;7.93;;;;;;;-0.31;75.97;99441.38;4995770;28;20046;-51
2022/12/09 03:22:21;;;;;;;19.00;8.98;;;;;;;-0.09;75.94;99457.34;5084049;27;20408;-50
2022/12/09 03:25:19;;;;;;;16.13;8.45;;;;;;;-0.14;76.43;99448.69;5050411;27;20049;-51
2022/12/09 03:30:23;;;;;;;16.67;6.15;;;;;;;-0.13;76.56;99452.97;5037068;27;20426;-50
2022/12/09 03:32:51;;;;;;;15.77;5.50;;;;;;;-0.13;76.94;99445.34;5020830;28;20050;-51
2022/12/09 03:35:23;;;;;;;13.18;5.47;;;;;;;-0.11;76.59;99441.13;5018396;28;20061;-50
2022/12/09 03:37:52;;;;;;;17.45;5.68;;;;;;;-0.10;76.07;99440.31;5021746;28;20057;-51
2022/12/09 03:40:28;;;;;;;12.88;5.93;;;;;;;-0.09;75.87;99447.16;5023124;28;20076;-52
2022/12/09 03:43:02;;;;;;;15.77;5.43;;;;;;;-0.07;76.98;99448.06;5018610;28;20053;-48
2022/12/09 03:45:30;;;;;;;19.55;4.90;;;;;;;-0.06;76.48;99451.47;5020146;28;20062;-51
2022/12/09 03:47:57;;;;;;;18.15;5.50;;;;;;;-0.05;76.30;99450.66;5017698;28;20494;-52
2022/12/09 03:50:29;;;;;;;19.40;6.55;;;;;;;-0.02;76.18;99458.38;5017755;28;20417;-49
2022/12/09 03:53:05;;;;;;;18.30;6.53;;;;;;;-0.02;76.15;99454.16;5049529;28;20096;-51
2022/12/09 03:55:50;;;;;;;17.48;6.35;;;;;;;-0.01;76.20;99449.94;5020426;28;20081;-53
2022/12/09 03:58:17;;;;;;;14.95;6.22;;;;;;;0.01;76.46;99455.06;5016864;28;20129;-50
2022/12/09 04:00:45;;;;;;;14.98;6.70;;;;;;;0.02;76.13;99446.59;5016570;28;20049;-49
2022/12/09 04:03:13;;;;;;;17.67;5.93;;;;;;;0.05;76.33;99446.69;5016362;28;20042;-52
2022/12/09 04:05:41;;;;;;;21.98;7.80;;;;;;;0.05;76.84;99444.16;5030857;28;20041;-51
2022/12/09 04:08:09;;;;;;;21.20;7.60;;;;;;;0.06;76.91;99443.31;5015583;28;20045;-51
2022/12/09 04:10:36;;;;;;;21.13;6.07;;;;;;;0.07;76.88;99437.44;5015161;28;20145;-49
2022/12/09 04:13:03;;;;;;;17.85;7.10;;;;;;;0.06;76.47;99436.56;5021242;28;20128;-51
2022/12/09 04:15:29;;;;;;;16.25;6.20;;;;;;;0.06;77.31;99443.31;5016491;28;20046;-53
2022/12/09 04:17:56;;;;;;;13.60;5.30;;;;;;;0.05;76.85;99439.06;5020986;28;20057;-54
2022/12/09 04:20:23;;;;;;;11.90;4.32;;;;;;;0.04;76.55;99437.34;5016249;28;20137;-52
2022/12/09 04:22:49;;;;;;;11.07;4.68;;;;;;;0.02;77.15;99438.97;5017942;28;20088;-52
2022/12/09 04:25:16;;;;;;;12.32;4.97;;;;;;;0.03;77.35;99443.25;4993458;28;20170;-54
2022/12/09 04:27:43;;;;;;;17.30;7.40;;;;;;;0.04;76.58;99439.88;5007501;28;20482;-49
2022/12/09 04:30:10;;;;;;;17.15;6.30;;;;;;;0.06;76.87;99445.88;5015619;28;20046;-52
2022/12/09 04:32:37;;;;;;;19.77;10.02;;;;;;;0.07;76.95;99447.63;5013583;28;20050;-50
2022/12/09 04:35:04;;;;;;;14.95;7.35;;;;;;;0.09;77.08;99446.84;5017622;28;20100;-49
2022/12/09 04:37:32;;;;;;;15.43;6.75;;;;;;;0.12;76.88;99440.97;5012660;28;20046;-51
2022/12/09 04:39:59;;;;;;;15.73;6.53;;;;;;;0.13;76.95;99442.69;5014961;28;20145;-51
2022/12/09 04:42:27;;;;;;;17.90;6.93;;;;;;;0.15;76.60;99441.06;5002611;28;20060;-53
2022/12/09 04:44:54;;;;;;;16.50;7.55;;;;;;;0.17;77.15;99447.06;5002197;28;20054;-51
2022/12/09 04:47:21;;;;;;;16.10;6.95;;;;;;;0.18;76.61;99435.19;4998588;28;20448;-51
2022/12/09 04:49:48;;;;;;;14.20;6.28;;;;;;;0.19;77.11;99442.88;5003289;28;20050;-51
2022/12/09 04:52:16;;;;;;;17.23;7.63;;;;;;;0.19;76.32;99436.91;4999487;28;20461;-53
2022/12/09 04:54:43;;;;;;;17.55;6.78;;;;;;;0.20;76.92;99434.41;5003290;28;20069;-51
2022/12/09 04:57:10;;;;;;;18.73;6.50;;;;;;;0.19;76.95;99432.69;5002904;28;20049;-50
2022/12/09 04:59:37;;;;;;;16.42;7.65;;;;;;;0.19;76.26;99432.69;5003647;28;20559;-51
2022/12/09 05:02:04;;;;;;;14.55;6.45;;;;;;;0.20;77.19;99438.66;5005364;28;20056;-53
2022/12/09 05:04:31;;;;;;;14.48;6.93;;;;;;;0.18;76.34;99436.06;5003436;28;20046;-50
2022/12/09 05:06:59;;;;;;;14.98;7.15;;;;;;;0.16;76.17;99437.69;4999612;28;20045;-53
2022/12/09 05:09:26;;;;;;;16.05;6.82;;;;;;;0.14;76.16;99435.94;5000769;28;20092;-49
2022/12/09 05:11:56;;;;;;;15.73;6.70;;;;;;;0.11;76.49;99437.56;4999688;28;21917;-53
2022/12/09 05:14:22;;;;;;;15.75;7.20;;;;;;;0.09;76.61;99438.34;5003555;28;20050;-52
2022/12/09 05:16:49;;;;;;;19.95;7.38;;;;;;;0.06;76.03;99431.47;5003999;28;20049;-52
2022/12/09 05:19:16;;;;;;;17.13;6.60;;;;;;;0.03;76.56;99435.63;5003698;28;20771;-51
2022/12/09 05:21:43;;;;;;;16.17;6.72;;;;;;;-0.01;76.19;99430.44;5002251;28;20493;-50
2022/12/09 05:24:10;;;;;;;17.95;7.00;;;;;;;-0.04;76.49;99425.25;5003002;28;20454;-52
2022/12/09 05:26:37;;;;;;;13.77;5.68;;;;;;;-0.09;76.43;99424.25;5003774;28;20046;-49
2022/12/09 05:29:04;;;;;;;15.95;4.72;;;;;;;-0.14;76.67;99428.31;5005378;28;20064;-53
2022/12/09 05:31:31;;;;;;;18.08;6.95;;;;;;;-0.17;76.81;99423.16;5003769;28;20119;-53
2022/12/09 05:33:58;;;;;;;15.57;5.88;;;;;;;-0.20;77.16;99423.06;5005580;28;20557;-51
2022/12/09 05:36:26;;;;;;;12.45;5.00;;;;;;;-0.21;76.40;99419.63;5002283;28;20064;-51
2022/12/09 05:38:54;;;;;;;12.55;5.88;;;;;;;-0.22;76.83;99424.66;4995338;28;20045;-50
2022/12/09 05:41:22;;;;;;;13.18;5.82;;;;;;;-0.21;76.76;99423.88;4985667;28;20454;-49
2022/12/09 05:43:50;;;;;;;15.73;6.05;;;;;;;-0.21;76.98;99418.78;4995914;28;20057;-52
2022/12/09 05:46:18;;;;;;;14.18;6.40;;;;;;;-0.21;76.51;99416.25;4997180;28;20054;-51
2022/12/09 05:48:45;;;;;;;19.00;6.85;;;;;;;-0.21;76.96;99421.34;5000675;28;20129;-49
2022/12/09 05:51:20;;;;;;;15.85;6.32;;;;;;;-0.20;76.93;99417.97;5000223;28;20096;-49
2022/12/09 05:53:47;;;;;;;10.38;5.38;;;;;;;-0.23;76.88;99418.75;4998699;28;20104;-51
2022/12/09 05:56:16;;;;;;;15.10;5.95;;;;;;;-0.23;76.62;99413.66;4998860;28;20576;-51
2022/12/09 05:58:43;;;;;;;9.25;2.83;;;;;;;-0.24;76.68;99421.22;4997004;28;20061;-53
2022/12/09 06:01:10;;;;;;;11.88;6.05;;;;;;;-0.24;76.97;99416.13;4999358;28;20045;-52
2022/12/09 06:03:38;;;;;;;14.98;4.82;;;;;;;-0.27;76.32;99415.22;4998410;28;20061;-52
2022/12/09 06:08:43;;;;;;;15.60;5.45;;;;;;;-0.27;76.93;99420.31;5115559;27;20381;-52
2022/12/09 06:11:13;;;;;;;12.25;5.65;;;;;;;-0.28;76.57;99418.59;5094878;28;20050;-51
2022/12/09 06:13:40;;;;;;;11.38;6.18;;;;;;;-0.28;77.23;99420.25;5097500;28;20058;-49
2022/12/09 06:16:07;;;;;;;17.85;6.93;;;;;;;-0.29;77.08;99418.53;5096979;28;20448;-50
2022/12/09 06:18:35;;;;;;;14.20;7.00;;;;;;;-0.31;76.80;99415.94;5102269;28;20047;-53
2022/12/09 06:21:05;;;;;;;16.80;6.18;;;;;;;-0.34;76.49;99418.38;5097355;28;20050;-51
2022/12/09 06:23:34;;;;;;;15.57;7.30;;;;;;;-0.36;76.86;99422.56;5094933;28;20058;-50
2022/12/09 06:26:02;;;;;;;13.90;6.97;;;;;;;-0.40;76.97;99420.75;5096291;28;20162;-49
2022/12/09 06:28:30;;;;;;;16.42;6.10;;;;;;;-0.42;76.87;99427.47;5099240;28;20093;-51
2022/12/09 06:30:57;;;;;;;15.70;5.82;;;;;;;-0.47;76.83;99429.84;5093987;28;20127;-52
2022/12/09 06:33:25;;;;;;;6.28;3.65;;;;;;;-0.50;76.84;99426.34;5098251;28;20044;-54
2022/12/09 06:36:11;;;;;;;11.05;5.50;;;;;;;-0.57;76.50;99418.50;5100834;28;20562;-52
2022/12/09 06:38:39;;;;;;;12.55;5.25;;;;;;;-0.61;76.98;99414.13;5100985;27;20047;-49
2022/12/09 06:41:08;;;;;;;8.02;4.07;;;;;;;-0.64;76.87;99421.69;5097203;27;20051;-52
2022/12/09 06:43:36;;;;;;;17.58;6.18;;;;;;;-0.66;76.98;99414.00;5093564;28;20143;-53
2022/12/09 06:46:10;;;;;;;18.27;5.10;;;;;;;-0.70;76.85;99411.31;5090297;28;20083;-52
2022/12/09 06:48:37;;;;;;;9.77;4.63;;;;;;;-0.73;76.97;99411.22;5101075;28;20048;-50
2022/12/09 06:51:04;;;;;;;10.15;4.20;;;;;;;-0.75;76.97;99412.84;5097690;28;20062;-53
2022/12/09 06:53:31;;;;;;;4.75;2.63;;;;;;;-0.81;77.33;99406.72;5097717;28;20550;-51
2022/12/09 06:56:03;;;;;;;12.00;4.50;;;;;;;-0.84;77.33;99409.16;5100337;28;20059;-50
2022/12/09 06:58:38;;;;;;;6.75;2.67;;;;;;;-0.90;77.32;99406.44;5100974;28;20063;-52
2022/12/09 07:01:12;;;;;;;18.05;6.45;;;;;;;-0.91;77.29;99413.19;5091946;28;20123;-48
2022/12/09 07:03:42;;;;;;;12.25;4.53;;;;;;;-0.93;77.29;99403.78;5095376;28;20159;-50
2022/12/09 07:09:05;;;;;;;12.27;5.45;;;;;;;-1.00;76.84;99409.47;5044878;28;20416;-49
2022/12/09 07:11:32;;;;;;;;;;;;;;;-1.06;77.52;99412.66;4999548;28;20046;-50
2022/12/09 07:13:59;;;;;;;10.00;4.03;;;;;;;-1.07;77.46;99411.81;5000535;28;19991;-51
2022/12/09 07:16:26;;;;;;;12.10;4.32;;;;;;;-1.08;77.19;99420.25;4998448;28;20402;-50
2022/12/09 07:18:53;;;;;;;11.50;3.95;;;;;;;-1.11;77.33;99420.16;4997447;28;20066;-50
2022/12/09 07:21:22;;;;;;;15.32;4.47;;;;;;;-1.12;76.86;99418.41;5002304;28;20053;-49
2022/12/09 07:23:49;;;;;;;15.43;6.35;;;;;;;-1.13;77.35;99420.91;4998918;28;20641;-50
2022/12/09 07:26:17;;;;;;;14.57;5.47;;;;;;;-1.18;77.37;99421.59;4997995;28;20089;-52
2022/12/09 07:28:46;;;;;;;14.77;6.13;;;;;;;-1.20;76.86;99422.38;4998851;28;20042;-53
2022/12/09 07:31:17;;;;;;;17.55;5.10;;;;;;;-1.24;76.88;99428.16;4997885;28;20216;-53
2022/12/09 07:33:45;;;;;;;19.13;5.50;;;;;;;-1.28;76.65;99426.31;4997455;28;20057;-48
2022/12/09 07:36:12;;;;;;;14.88;5.30;;;;;;;-1.32;77.18;99421.13;4998972;28;20046;-52
2022/12/09 07:38:46;;;;;;;16.02;4.93;;;;;;;-1.34;76.81;99432.94;4998076;28;20082;-49
2022/12/09 07:41:16;;;;;;;7.43;3.92;;;;;;;-1.36;77.18;99419.28;4997308;28;20131;-54
2022/12/09 07:43:44;;;;;;;7.45;2.63;;;;;;;-1.38;77.08;99427.66;4997626;28;20169;-51
2022/12/09 07:46:14;;;;;;;8.82;3.20;;;;;;;-1.40;77.20;99427.63;4996488;28;21796;-51
2022/12/09 07:48:42;;;;;;;4.07;1.77;;;;;;;-1.44;76.95;99424.13;4994092;28;20124;-53
2022/12/09 07:51:09;;;;;;;9.70;3.10;;;;;;;-1.44;77.08;99425.78;4997770;28;20128;-54
2022/12/09 07:53:36;;;;;;;9.43;3.70;;;;;;;-1.45;77.37;99429.97;4996968;28;20050;-54
2022/12/09 07:56:07;;;;;;;9.88;3.53;;;;;;;-1.47;77.18;99421.47;4990287;28;20559;-52
2022/12/09 07:58:34;;;;;;;10.10;3.78;;;;;;;-1.46;77.52;99425.72;4993228;28;20077;-51
2022/12/09 08:01:12;;;;;;;3.08;1.42;;;;;;;-1.49;77.86;99427.28;4994193;28;20138;-50
2022/12/09 08:03:40;;;;;;;9.65;3.67;;;;;;;-1.49;77.54;99427.28;4988919;28;20046;-53
2022/12/09 08:06:11;;;;;;;6.95;4.30;;;;;;;-1.51;77.79;99423.81;4995184;28;21466;-49
2022/12/09 08:08:38;;;;;;;21.00;4.90;;;;;;;-1.51;77.70;99419.63;4987624;28;20053;-52
2022/12/09 08:11:07;;;;;;;12.15;3.97;;;;;;;-1.50;78.02;99417.91;4994647;28;20093;-51
2022/12/09 08:13:35;;;;;;;10.07;4.45;;;;;;;-1.50;77.50;99423.88;4993512;28;20450;-53
2022/12/09 08:16:05;;;;;;;12.02;4.97;;;;;;;-1.47;77.35;99430.75;4997699;28;20508;-50
2022/12/09 08:18:33;;;;;;;8.48;4.03;;;;;;;-1.48;77.15;99434.09;4996935;28;20679;-49
2022/12/09 08:21:06;;;;;;;9.18;4.15;;;;;;;-1.49;77.26;99442.53;4991899;28;20502;-49
2022/12/09 08:23:33;;;;;;;12.57;4.93;;;;;;;-1.50;77.40;99436.59;4990512;28;20101;-53
2022/12/09 08:26:00;;;;;;;11.45;5.65;;;;;;;-1.50;77.30;99446.75;4984909;28;20046;-54
2022/12/09 08:28:28;;;;;;;11.00;5.38;;;;;;;-1.50;77.08;99445.88;4982994;28;20585;-52
2022/12/09 08:30:55;;;;;;;15.88;5.50;;;;;;;-1.49;77.02;99447.63;4981087;28;20048;-52
2022/12/09 08:33:23;;;;;;;13.82;4.93;;;;;;;-1.49;77.16;99445.06;4983205;28;20350;-49
2022/12/09 08:35:50;;;;;;;11.75;4.93;;;;;;;-1.47;77.38;99440.91;4978168;28;20410;-55
2022/12/09 08:38:16;;;;;;;15.00;6.43;;;;;;;-1.43;76.71;99445.28;4978715;28;20168;-50
2022/12/09 08:40:43;;;;;;;20.40;5.38;;;;;;;-1.31;77.18;99450.78;4978172;28;20144;-53
2022/12/09 08:43:11;;;;;;;14.52;6.03;;;;;;;-0.89;77.58;99455.59;4978959;28;20089;-51
2022/12/09 08:45:39;;;;;;;19.40;6.88;;;;;;;-0.30;77.55;99457.53;4981179;28;20141;-52
2022/12/09 08:48:07;;;;;;;16.42;7.63;;;;;;;0.31;77.86;99451.72;4976808;28;20052;-52
2022/12/09 08:50:34;;;;;;;17.60;7.60;;;;;;;0.97;76.88;99454.38;4983140;28;20061;-51
2022/12/09 08:53:01;;;;;;;13.98;6.03;;;;;;;1.64;77.14;99445.81;4984284;28;20468;-53
2022/12/09 08:55:28;;;;;;;16.13;6.78;;;;;;;2.21;76.91;99436.03;4985660;28;20074;-53
2022/12/09 08:57:56;;;;;;;14.75;5.50;;;;;;;2.64;75.43;99441.16;4979976;28;20439;-52
2022/12/09 09:00:22;;;;;;;14.18;5.65;;;;;;;3.07;74.84;99435.13;4979932;28;20042;-52
2022/12/09 09:02:49;;;;;;;14.63;5.45;;;;;;;3.69;74.29;99445.56;4981485;28;20077;-55
2022/12/09 09:05:16;;;;;;;13.45;5.40;;;;;;;4.37;74.33;99456.78;4984295;28;20049;-51
2022/12/09 09:07:44;;;;;;;18.15;6.28;;;;;;;5.12;73.15;99447.34;4985923;28;20468;-53
2022/12/09 09:10:11;;;;;;;15.98;7.15;;;;;;;5.89;73.13;99446.25;4983765;28;20054;-53
2022/12/09 09:12:39;;;;;;;15.32;6.55;;;;;;;6.64;70.82;99445.78;4982406;28;20062;-54
2022/12/09 09:15:09;;;;;;;20.20;9.05;;;;;;;7.22;69.58;99451.09;4979034;28;20050;-55
2022/12/09 09:17:36;;;;;;;22.20;9.63;;;;;;;7.67;69.52;99451.97;4985714;28;20121;-53
2022/12/09 09:20:05;;;;;;;16.80;8.23;;;;;;;8.11;69.28;99444.19;4985128;28;20054;-53
2022/12/09 09:22:33;;;;;;;15.15;8.05;;;;;;;8.57;68.70;99444.91;4985707;28;20081;-51
2022/12/09 09:25:00;;;;;;;16.02;7.70;;;;;;;9.11;68.43;99451.53;4986576;28;20071;-53
2022/12/09 09:27:27;;;;;;;85.22;28.15;;;;;;;9.73;67.04;99451.06;4983931;28;20418;-51
2022/12/09 09:29:54;;;;;;;66.30;21.70;;;;;;;10.34;65.52;99449.59;4986790;28;20087;-54
2022/12/09 09:32:21;;;;;;;50.17;18.70;;;;;;;10.90;65.46;99451.53;4982858;28;20058;-53
2022/12/09 09:34:49;;;;;;;29.60;13.77;;;;;;;11.46;63.93;99455.91;4985111;28;20530;-55
2022/12/09 09:37:16;;;;;;;21.80;9.65;;;;;;;11.98;62.22;99453.28;4985855;28;20046;-53
2022/12/09 09:39:43;;;;;;;15.43;6.80;;;;;;;12.45;61.35;99452.44;4982629;28;20575;-55
2022/12/09 09:42:18;;;;;;;16.60;6.53;;;;;;;12.89;60.37;99451.53;4985592;28;20530;-52
2022/12/09 09:44:47;;;;;;;19.92;8.63;;;;;;;13.33;59.49;99460.06;4983328;28;20710;-54
2022/12/09 09:50:00;;;;;;;21.92;12.63;;;;;;;14.23;51.13;99453.53;5077424;27;20393;-53
2022/12/09 09:52:29;;;;;;;21.17;10.80;;;;;;;14.70;53.38;99460.91;5036422;28;20055;-53
2022/12/09 09:54:56;;;;;;;17.17;11.40;;;;;;;15.13;53.77;99456.16;5033070;28;20053;-50
2022/12/09 10:03:00;;;;;;;13.85;7.47;;;;;;;16.30;51.40;99454.06;5048824;27;20433;-55
2022/12/09 10:05:31;;;;;;;15.68;7.63;;;;;;;16.71;50.98;99456.06;5013487;28;20144;-55
2022/12/09 10:08:29;;;;;;;20.73;9.85;;;;;;;17.11;50.22;99451.09;5015513;28;20112;-53
2022/12/09 10:11:30;;;;;;;11.88;7.63;;;;;;;17.56;49.31;99449.28;5019717;28;20053;-55
2022/12/09 10:16:41;;;;;;;16.52;7.60;;;;;;;18.04;46.74;99445.56;5055862;28;20411;-56
2022/12/09 10:21:49;;;;;;;14.68;9.18;;;;;;;18.32;45.06;99439.13;5073184;27;20411;-55
2022/12/09 10:24:23;;;;;;;12.13;8.13;;;;;;;18.36;44.55;99438.94;5053599;28;20464;-56
2022/12/09 10:27:13;;;;;;;16.00;7.50;;;;;;;18.45;44.33;99439.44;5054064;28;20052;-53
2022/12/09 10:32:19;;;;;;;20.08;6.45;;;;;;;18.45;42.85;99436.81;5107232;27;20410;-52
2022/12/09 10:34:47;;;;;;;26.33;9.98;;;;;;;18.33;43.06;99435.59;5076827;28;20209;-57
2022/12/09 10:37:29;;;;;;;50.97;16.52;;;;;;;18.07;42.23;99434.97;5102613;28;20047;-55
2022/12/09 10:40:12;;;;;;;47.05;15.45;;;;;;;17.55;42.62;99431.88;5097224;28;20056;-54
2022/12/09 10:45:42;;;;;;;13.65;5.18;;;;;;;15.46;43.34;99431.63;5092080;28;20097;-51
2022/12/09 10:51:13;;;;;;;19.48;8.32;;;;;;;13.61;46.17;99422.13;5094647;27;20398;-56
2022/12/09 10:53:48;;;;;;;22.70;10.05;;;;;;;13.07;46.56;99425.13;5079257;28;20053;-53
2022/12/09 10:56:19;;;;;;;23.70;8.88;;;;;;;12.73;47.74;99420.69;5075826;28;20063;-55
2022/12/09 10:58:46;;;;;;;19.58;9.20;;;;;;;12.33;48.12;99418.03;5080800;28;20055;-51
2022/12/09 11:01:14;;;;;;;20.55;8.30;;;;;;;11.89;47.62;99411.94;5082120;28;20063;-53
2022/12/09 11:08:58;;;;;;;14.85;6.38;;;;;;;10.51;49.71;99406.25;5041881;28;20762;-52
2022/12/09 11:11:47;;;;;;;13.05;5.55;;;;;;;9.98;50.16;99413.75;4999162;28;20053;-53
2022/12/09 11:14:37;;;;;;;7.38;3.13;;;;;;;9.67;50.89;99409.75;4997168;28;20054;-52
2022/12/09 11:19:54;;;;;;;10.57;4.75;;;;;;;9.61;49.09;99404.63;5034177;28;20646;-52
2022/12/09 11:25:17;;;;;;;7.60;3.03;;;;;;;8.31;51.69;99415.72;5042775;27;20419;-54
2022/12/09 11:27:52;;;;;;;9.05;4.15;;;;;;;8.08;52.42;99415.81;5034727;28;20064;-51
2022/12/09 11:33:28;;;;;;;8.48;3.45;;;;;;;7.97;53.33;99403.81;5039750;28;20813;-51
2022/12/09 11:36:03;;;;;;;7.13;2.60;;;;;;;7.97;53.91;99398.66;5014267;28;20250;-53
2022/12/09 11:43:49;;;;;;;6.05;3.10;;;;;;;8.11;53.45;99400.34;5082569;27;20398;-51
2022/12/09 11:46:24;;;;;;;6.82;3.55;;;;;;;8.05;53.31;99403.81;5038091;27;20165;-50
2022/12/09 11:51:31;;;;;;;9.40;3.67;;;;;;;7.48;54.41;99402.16;5030306;28;20410;-51
2022/12/09 11:54:04;;;;;;;7.57;4.05;;;;;;;7.23;55.12;99398.72;5020117;28;20138;-50
2022/12/09 11:56:33;;;;;;;4.28;2.13;;;;;;;7.03;55.70;99391.84;5023121;28;20065;-53
2022/12/09 11:59:19;;;;;;;6.40;4.80;;;;;;;6.81;54.61;99397.81;5035049;28;20114;-52
2022/12/09 12:02:03;;;;;;;6.45;4.57;;;;;;;6.73;55.78;99388.34;5042720;28;20143;-53
2022/12/09 12:07:14;;;;;;;9.10;3.28;;;;;;;6.62;55.61;99391.75;5005171;28;20415;-51
2022/12/09 12:15:00;;;;;;;6.68;2.58;;;;;;;6.21;57.36;99384.75;5023696;28;20387;-49
2022/12/09 12:17:42;;;;;;;7.20;3.40;;;;;;;6.03;57.33;99373.50;4999961;28;20051;-49
2022/12/09 12:20:12;;;;;;;7.70;2.72;;;;;;;5.90;56.90;99372.56;5000074;28;21048;-49
2022/12/09 12:28:46;;;;;;;4.20;2.10;;;;;;;5.44;57.19;99368.00;5029004;27;20413;-51
2022/12/09 12:37:04;;;;;;;4.65;2.80;;;;;;;5.01;58.47;99356.53;5042152;28;20404;-51
2022/12/09 12:40:05;;;;;;;4.05;2.28;;;;;;;4.84;58.78;99364.94;5018114;28;20529;-48
2022/12/09 12:49:07;;;;;;;6.95;2.70;;;;;;;4.65;59.54;99363.88;5046811;28;20404;-48
2022/12/09 12:54:47;;;;;;;11.85;3.13;;;;;;;4.60;60.40;99361.25;5073237;27;20448;-52
2022/12/09 12:57:32;;;;;;;14.05;4.95;;;;;;;4.58;59.62;99357.84;5040797;28;20053;-50
2022/12/09 13:05:21;;;;;;;9.45;3.28;;;;;;;4.49;60.71;99347.47;5062860;28;20919;-49
2022/12/09 13:10:46;;;;;;;9.63;3.85;;;;;;;4.36;61.00;99337.09;5058275;27;20419;-47
2022/12/09 13:13:20;;;;;;;12.93;3.95;;;;;;;4.31;60.79;99338.75;5064583;28;20492;-48
2022/12/09 13:15:51;;;;;;;11.85;3.60;;;;;;;4.27;61.00;99338.69;5077197;28;20052;-48
2022/12/09 13:20:57;;;;;;;10.18;4.55;;;;;;;4.19;61.66;99348.88;5052416;28;20403;-50
2022/12/09 13:23:49;;;;;;;15.85;4.88;;;;;;;4.14;61.79;99335.09;5014421;28;20103;-49
2022/12/09 13:31:49;;;;;;;9.75;5.15;;;;;;;4.02;61.40;99331.56;5039511;28;20408;-49
2022/12/09 13:34:37;;;;;;;16.77;5.18;;;;;;;3.96;61.84;99334.06;5010341;28;20505;-51
2022/12/09 13:37:25;;;;;;;17.38;6.32;;;;;;;3.94;62.31;99336.59;4999773;28;20074;-50
2022/12/09 13:39:54;;;;;;;12.82;4.70;;;;;;;3.91;62.04;99333.13;5000819;28;20060;-48
2022/12/09 13:45:05;;;;;;;10.57;4.95;;;;;;;3.83;62.19;99331.34;5096340;27;20395;-48
2022/12/09 13:47:35;;;;;;;11.20;4.10;;;;;;;3.80;62.53;99330.44;5064853;28;20053;-49
2022/12/09 13:50:05;;;;;;;9.70;4.97;;;;;;;3.74;62.29;99328.66;5067059;28;20147;-47